This is the latest recevied weather packets stored in our database for station/object KA7EII-13. If no packets are shown the sender has not sent any weather packets the latest 10 day(s).
| Time | Temp. | Humidity | Pressure | Rain* | Wind** | Luminosity | Snow |
|---|---|---|---|---|---|---|---|
| 1777738539 | 15° C | 40% | 1110.1 hPa | 0 mm | - | 545 W/m² | - |
| 1777738236 | 14.44° C | 40% | 1110.2 hPa | 0 mm | - | 509 W/m² | - |
| 1777737934 | 14.44° C | 42% | 1110.2 hPa | 0 mm | - | 561 W/m² | - |
| 1777737632 | 13.33° C | 44% | 1110.1 hPa | 0 mm | - | 549 W/m² | - |
| 1777737331 | 13.89° C | 45% | 1110 hPa | 0 mm | - | 552 W/m² | - |
| 1777737027 | 12.78° C | 46% | 1110.1 hPa | 0 mm | - | 514 W/m² | - |
| 1777736723 | 12.22° C | 47% | 1110 hPa | 0 mm | - | 465 W/m² | - |
| 1777736095 | 11.67° C | 49% | 1110.2 hPa | 0 mm | - | 418 W/m² | - |
| 1777735792 | 12.22° C | 49% | 1110 hPa | 0 mm | - | 361 W/m² | - |
| 1777735489 | 12.22° C | 49% | 1110.1 hPa | 0 mm | - | 331 W/m² | - |
| 1777735187 | 12.22° C | 47% | 1110.1 hPa | 0 mm | - | 360 W/m² | - |
| 1777734884 | 11.67° C | 48% | 1110.2 hPa | 0 mm | - | 308 W/m² | - |
| 1777734581 | 12.22° C | 48% | 1110.1 hPa | 0 mm | - | 291 W/m² | - |
| 1777734278 | 12.22° C | 48% | 1110.2 hPa | 0 mm | - | 260 W/m² | - |
| 1777733974 | 11.67° C | 49% | 1110 hPa | 0 mm | - | 289 W/m² | - |
| 1777733671 | 11.67° C | 48% | 1109.9 hPa | 0 mm | - | 302 W/m² | - |
| 1777733367 | 10.56° C | 50% | 1110.1 hPa | 0 mm | - | 294 W/m² | - |
| 1777733064 | 10.56° C | 49% | 1110.3 hPa | 0 mm | - | 236 W/m² | - |
| 1777732760 | 10.56° C | 48% | 1110.2 hPa | 0 mm | - | 210 W/m² | - |
| 1777732457 | 10° C | 50% | 1110 hPa | 0 mm | - | 210 W/m² | - |
| 1777732155 | 9.44° C | 51% | 1110.1 hPa | 0 mm | - | 186 W/m² | - |
| 1777731851 | 9.44° C | 51% | 1109.9 hPa | 0 mm | - | 145 W/m² | - |
| 1777731548 | 8.89° C | 54% | 1110.3 hPa | 0 mm | - | 151 W/m² | - |
| 1777731247 | 8.89° C | 54% | 1110.1 hPa | 0 mm | - | 157 W/m² | - |
| 1777730944 | 8.33° C | 54% | 1110 hPa | 0 mm | - | 89 W/m² | - |
* Rain latest hour (hover to see other rain measurements)
** Current wind speed in m/s (hover to see current wind gust speed)